sensor_id;sensor_type;location;lat;lon;timestamp;P1;durP1;ratioP1;P2;durP2;ratioP2
18162;SDS011;9206;50.994;4.538;2024-03-22T00:02:40;44.60;;;29.97;;
18162;SDS011;9206;50.994;4.538;2024-03-22T00:11:09;42.57;;;25.97;;
18162;SDS011;9206;50.994;4.538;2024-03-22T00:13:58;34.30;;;26.20;;
18162;SDS011;9206;50.994;4.538;2024-03-22T00:16:49;36.27;;;25.30;;
18162;SDS011;9206;50.994;4.538;2024-03-22T00:19:39;40.60;;;25.60;;
18162;SDS011;9206;50.994;4.538;2024-03-22T00:22:30;44.33;;;25.80;;
18162;SDS011;9206;50.994;4.538;2024-03-22T00:28:08;37.73;;;25.97;;
18162;SDS011;9206;50.994;4.538;2024-03-22T00:30:56;37.97;;;24.93;;
18162;SDS011;9206;50.994;4.538;2024-03-22T00:33:43;36.67;;;23.60;;
18162;SDS011;9206;50.994;4.538;2024-03-22T00:36:31;36.27;;;24.97;;
18162;SDS011;9206;50.994;4.538;2024-03-22T00:42:07;35.87;;;24.13;;
18162;SDS011;9206;50.994;4.538;2024-03-22T00:44:58;35.43;;;24.00;;
18162;SDS011;9206;50.994;4.538;2024-03-22T00:47:44;31.67;;;22.60;;
18162;SDS011;9206;50.994;4.538;2024-03-22T00:53:22;33.43;;;22.87;;
18162;SDS011;9206;50.994;4.538;2024-03-22T00:56:09;34.77;;;22.83;;
18162;SDS011;9206;50.994;4.538;2024-03-22T00:58:58;33.13;;;22.77;;
18162;SDS011;9206;50.994;4.538;2024-03-22T01:01:48;37.20;;;22.70;;
18162;SDS011;9206;50.994;4.538;2024-03-22T01:04:37;29.93;;;22.10;;
18162;SDS011;9206;50.994;4.538;2024-03-22T01:07:32;30.97;;;21.33;;
18162;SDS011;9206;50.994;4.538;2024-03-22T01:10:26;32.67;;;21.60;;
18162;SDS011;9206;50.994;4.538;2024-03-22T01:13:17;30.80;;;21.40;;
18162;SDS011;9206;50.994;4.538;2024-03-22T01:16:09;30.70;;;21.80;;
18162;SDS011;9206;50.994;4.538;2024-03-22T01:19:01;32.17;;;21.70;;
18162;SDS011;9206;50.994;4.538;2024-03-22T01:21:52;33.37;;;21.83;;
18162;SDS011;9206;50.994;4.538;2024-03-22T01:24:42;31.60;;;21.07;;
18162;SDS011;9206;50.994;4.538;2024-03-22T01:27:31;28.00;;;21.00;;
18162;SDS011;9206;50.994;4.538;2024-03-22T01:33:10;30.23;;;22.43;;
18162;SDS011;9206;50.994;4.538;2024-03-22T01:36:01;32.37;;;22.20;;
18162;SDS011;9206;50.994;4.538;2024-03-22T01:38:49;31.97;;;22.63;;
18162;SDS011;9206;50.994;4.538;2024-03-22T01:41:37;34.67;;;23.27;;
18162;SDS011;9206;50.994;4.538;2024-03-22T01:44:28;36.60;;;22.60;;
18162;SDS011;9206;50.994;4.538;2024-03-22T01:47:18;34.63;;;23.13;;
18162;SDS011;9206;50.994;4.538;2024-03-22T01:50:12;31.53;;;22.97;;
18162;SDS011;9206;50.994;4.538;2024-03-22T01:58:39;32.83;;;23.50;;
18162;SDS011;9206;50.994;4.538;2024-03-22T02:01:31;33.47;;;23.30;;
18162;SDS011;9206;50.994;4.538;2024-03-22T02:04:18;30.40;;;24.17;;
18162;SDS011;9206;50.994;4.538;2024-03-22T02:07:05;35.13;;;24.53;;
18162;SDS011;9206;50.994;4.538;2024-03-22T02:12:46;34.80;;;24.03;;
18162;SDS011;9206;50.994;4.538;2024-03-22T02:15:32;36.30;;;23.83;;
18162;SDS011;9206;50.994;4.538;2024-03-22T02:18:22;32.83;;;23.53;;
18162;SDS011;9206;50.994;4.538;2024-03-22T02:21:14;36.90;;;24.27;;
18162;SDS011;9206;50.994;4.538;2024-03-22T02:24:05;34.93;;;23.83;;
18162;SDS011;9206;50.994;4.538;2024-03-22T02:26:53;37.60;;;24.10;;
18162;SDS011;9206;50.994;4.538;2024-03-22T02:32:32;33.50;;;23.37;;
18162;SDS011;9206;50.994;4.538;2024-03-22T02:35:20;31.87;;;23.20;;
18162;SDS011;9206;50.994;4.538;2024-03-22T02:38:08;31.07;;;21.33;;
18162;SDS011;9206;50.994;4.538;2024-03-22T02:41:03;33.13;;;22.77;;
18162;SDS011;9206;50.994;4.538;2024-03-22T02:43:49;31.83;;;22.23;;
18162;SDS011;9206;50.994;4.538;2024-03-22T02:49:27;35.30;;;20.80;;
18162;SDS011;9206;50.994;4.538;2024-03-22T02:52:15;34.60;;;20.80;;
18162;SDS011;9206;50.994;4.538;2024-03-22T02:55:04;28.57;;;19.63;;
18162;SDS011;9206;50.994;4.538;2024-03-22T02:57:59;31.07;;;20.00;;
18162;SDS011;9206;50.994;4.538;2024-03-22T03:00:48;32.13;;;20.33;;
18162;SDS011;9206;50.994;4.538;2024-03-22T03:03:36;29.77;;;18.80;;
18162;SDS011;9206;50.994;4.538;2024-03-22T03:06:24;29.27;;;19.83;;
18162;SDS011;9206;50.994;4.538;2024-03-22T03:09:11;28.37;;;19.70;;
18162;SDS011;9206;50.994;4.538;2024-03-22T03:11:58;28.83;;;20.13;;
18162;SDS011;9206;50.994;4.538;2024-03-22T03:14:47;30.33;;;19.73;;
18162;SDS011;9206;50.994;4.538;2024-03-22T03:17:37;29.33;;;19.87;;
18162;SDS011;9206;50.994;4.538;2024-03-22T03:20:23;30.37;;;19.90;;
18162;SDS011;9206;50.994;4.538;2024-03-22T03:23:13;32.13;;;19.93;;
18162;SDS011;9206;50.994;4.538;2024-03-22T03:26:00;28.57;;;18.80;;
18162;SDS011;9206;50.994;4.538;2024-03-22T03:28:47;28.30;;;18.90;;
18162;SDS011;9206;50.994;4.538;2024-03-22T03:31:35;31.60;;;19.60;;
18162;SDS011;9206;50.994;4.538;2024-03-22T03:34:24;29.30;;;19.10;;
18162;SDS011;9206;50.994;4.538;2024-03-22T03:37:12;28.13;;;19.90;;
18162;SDS011;9206;50.994;4.538;2024-03-22T03:39:59;27.70;;;19.20;;
18162;SDS011;9206;50.994;4.538;2024-03-22T03:42:45;25.87;;;18.77;;
18162;SDS011;9206;50.994;4.538;2024-03-22T03:48:23;25.70;;;18.03;;
18162;SDS011;9206;50.994;4.538;2024-03-22T03:51:13;30.07;;;18.70;;
18162;SDS011;9206;50.994;4.538;2024-03-22T03:54:01;26.07;;;18.47;;
18162;SDS011;9206;50.994;4.538;2024-03-22T03:56:50;32.03;;;19.33;;
18162;SDS011;9206;50.994;4.538;2024-03-22T03:59:36;29.10;;;18.07;;
18162;SDS011;9206;50.994;4.538;2024-03-22T04:05:14;24.10;;;17.57;;
18162;SDS011;9206;50.994;4.538;2024-03-22T04:08:01;23.40;;;17.40;;
18162;SDS011;9206;50.994;4.538;2024-03-22T04:10:51;24.67;;;17.73;;
18162;SDS011;9206;50.994;4.538;2024-03-22T04:16:29;24.27;;;17.97;;
18162;SDS011;9206;50.994;4.538;2024-03-22T04:19:19;22.93;;;16.77;;
18162;SDS011;9206;50.994;4.538;2024-03-22T04:22:09;26.80;;;17.60;;
18162;SDS011;9206;50.994;4.538;2024-03-22T04:27:45;24.83;;;17.03;;
18162;SDS011;9206;50.994;4.538;2024-03-22T04:39:07;25.27;;;17.03;;
18162;SDS011;9206;50.994;4.538;2024-03-22T04:41:56;24.20;;;15.27;;
18162;SDS011;9206;50.994;4.538;2024-03-22T04:44:43;24.50;;;16.47;;
18162;SDS011;9206;50.994;4.538;2024-03-22T04:47:33;28.57;;;16.30;;
18162;SDS011;9206;50.994;4.538;2024-03-22T04:56:03;24.87;;;16.90;;
18162;SDS011;9206;50.994;4.538;2024-03-22T04:58:54;29.33;;;17.33;;
18162;SDS011;9206;50.994;4.538;2024-03-22T05:01:41;21.80;;;16.07;;
18162;SDS011;9206;50.994;4.538;2024-03-22T05:04:33;28.97;;;16.80;;
18162;SDS011;9206;50.994;4.538;2024-03-22T05:07:26;27.47;;;16.83;;
18162;SDS011;9206;50.994;4.538;2024-03-22T05:10:16;30.47;;;16.63;;
18162;SDS011;9206;50.994;4.538;2024-03-22T05:13:07;27.87;;;16.70;;
18162;SDS011;9206;50.994;4.538;2024-03-22T05:15:55;27.23;;;18.33;;
18162;SDS011;9206;50.994;4.538;2024-03-22T05:18:52;34.87;;;18.30;;
18162;SDS011;9206;50.994;4.538;2024-03-22T05:21:41;30.10;;;17.50;;
18162;SDS011;9206;50.994;4.538;2024-03-22T05:24:32;33.57;;;18.20;;
18162;SDS011;9206;50.994;4.538;2024-03-22T05:30:11;39.57;;;20.20;;
18162;SDS011;9206;50.994;4.538;2024-03-22T05:32:59;37.60;;;20.83;;
18162;SDS011;9206;50.994;4.538;2024-03-22T05:35:46;28.63;;;19.80;;
18162;SDS011;9206;50.994;4.538;2024-03-22T05:38:39;32.37;;;20.00;;
18162;SDS011;9206;50.994;4.538;2024-03-22T05:41:27;30.30;;;19.23;;
18162;SDS011;9206;50.994;4.538;2024-03-22T05:44:13;36.23;;;20.10;;
18162;SDS011;9206;50.994;4.538;2024-03-22T05:52:53;27.63;;;19.77;;
18162;SDS011;9206;50.994;4.538;2024-03-22T05:55:42;23.40;;;18.63;;
18162;SDS011;9206;50.994;4.538;2024-03-22T05:58:28;26.03;;;18.00;;
18162;SDS011;9206;50.994;4.538;2024-03-22T06:01:21;32.77;;;19.83;;
18162;SDS011;9206;50.994;4.538;2024-03-22T06:07:02;26.03;;;18.20;;
18162;SDS011;9206;50.994;4.538;2024-03-22T06:09:50;32.87;;;18.97;;
18162;SDS011;9206;50.994;4.538;2024-03-22T06:12:50;24.67;;;18.23;;
18162;SDS011;9206;50.994;4.538;2024-03-22T06:15:38;24.83;;;17.33;;
18162;SDS011;9206;50.994;4.538;2024-03-22T06:18:31;26.63;;;17.47;;
18162;SDS011;9206;50.994;4.538;2024-03-22T06:21:26;24.30;;;16.87;;
18162;SDS011;9206;50.994;4.538;2024-03-22T06:27:08;25.73;;;16.67;;
18162;SDS011;9206;50.994;4.538;2024-03-22T06:29:57;24.13;;;16.63;;
18162;SDS011;9206;50.994;4.538;2024-03-22T06:32:46;24.53;;;16.00;;
18162;SDS011;9206;50.994;4.538;2024-03-22T06:35:35;23.53;;;16.60;;
18162;SDS011;9206;50.994;4.538;2024-03-22T06:38:24;22.17;;;15.03;;
18162;SDS011;9206;50.994;4.538;2024-03-22T06:41:13;21.00;;;16.53;;
18162;SDS011;9206;50.994;4.538;2024-03-22T06:44:02;25.03;;;15.87;;
18162;SDS011;9206;50.994;4.538;2024-03-22T06:46:53;21.50;;;15.00;;
18162;SDS011;9206;50.994;4.538;2024-03-22T06:49:39;20.83;;;15.10;;
18162;SDS011;9206;50.994;4.538;2024-03-22T06:52:27;17.63;;;14.27;;
18162;SDS011;9206;50.994;4.538;2024-03-22T06:55:15;18.70;;;14.60;;
18162;SDS011;9206;50.994;4.538;2024-03-22T06:58:06;18.63;;;13.40;;
18162;SDS011;9206;50.994;4.538;2024-03-22T07:00:53;20.67;;;13.20;;
18162;SDS011;9206;50.994;4.538;2024-03-22T07:03:41;21.83;;;13.90;;
18162;SDS011;9206;50.994;4.538;2024-03-22T07:12:18;18.17;;;13.13;;
18162;SDS011;9206;50.994;4.538;2024-03-22T07:15:10;19.10;;;12.63;;
18162;SDS011;9206;50.994;4.538;2024-03-22T07:17:58;14.47;;;12.27;;
18162;SDS011;9206;50.994;4.538;2024-03-22T07:23:34;14.77;;;11.63;;
18162;SDS011;9206;50.994;4.538;2024-03-22T17:09:05;6.83;;;6.27;;
18162;SDS011;9206;50.994;4.538;2024-03-22T17:11:54;9.30;;;6.90;;
18162;SDS011;9206;50.994;4.538;2024-03-22T17:17:35;7.27;;;6.67;;
18162;SDS011;9206;50.994;4.538;2024-03-22T17:20:25;7.07;;;6.67;;
18162;SDS011;9206;50.994;4.538;2024-03-22T17:23:14;7.80;;;7.20;;
18162;SDS011;9206;50.994;4.538;2024-03-22T17:26:04;7.67;;;6.53;;
18162;SDS011;9206;50.994;4.538;2024-03-22T17:28:53;7.60;;;6.93;;
18162;SDS011;9206;50.994;4.538;2024-03-22T17:35:28;7.80;;;6.93;;
18162;SDS011;9206;50.994;4.538;2024-03-22T17:38:15;8.07;;;7.37;;
18162;SDS011;9206;50.994;4.538;2024-03-22T17:41:01;8.43;;;7.60;;
18162;SDS011;9206;50.994;4.538;2024-03-22T17:47:33;6.90;;;5.90;;
18162;SDS011;9206;50.994;4.538;2024-03-22T17:50:21;6.57;;;6.00;;
18162;SDS011;9206;50.994;4.538;2024-03-22T17:53:08;8.77;;;7.40;;
18162;SDS011;9206;50.994;4.538;2024-03-22T17:55:55;9.23;;;7.40;;
18162;SDS011;9206;50.994;4.538;2024-03-22T17:58:44;8.27;;;6.70;;
18162;SDS011;9206;50.994;4.538;2024-03-22T18:01:31;8.93;;;7.97;;
18162;SDS011;9206;50.994;4.538;2024-03-22T18:07:18;8.73;;;7.83;;
18162;SDS011;9206;50.994;4.538;2024-03-22T18:10:04;9.03;;;7.70;;
18162;SDS011;9206;50.994;4.538;2024-03-22T18:12:53;10.10;;;8.43;;
18162;SDS011;9206;50.994;4.538;2024-03-22T18:30:30;15.77;;;12.07;;
18162;SDS011;9206;50.994;4.538;2024-03-22T18:33:17;25.60;;;19.20;;
18162;SDS011;9206;50.994;4.538;2024-03-22T18:36:04;31.63;;;19.97;;
18162;SDS011;9206;50.994;4.538;2024-03-22T19:04:47;17.53;;;13.03;;
18162;SDS011;9206;50.994;4.538;2024-03-22T19:07:34;16.27;;;13.13;;
18162;SDS011;9206;50.994;4.538;2024-03-22T19:14:02;17.57;;;13.07;;
18162;SDS011;9206;50.994;4.538;2024-03-22T19:16:49;12.90;;;10.63;;
18162;SDS011;9206;50.994;4.538;2024-03-22T19:34:26;14.47;;;12.03;;
18162;SDS011;9206;50.994;4.538;2024-03-22T20:03:11;15.23;;;11.60;;
18162;SDS011;9206;50.994;4.538;2024-03-22T20:05:59;18.80;;;11.50;;
18162;SDS011;9206;50.994;4.538;2024-03-22T20:12:27;13.90;;;11.20;;
18162;SDS011;9206;50.994;4.538;2024-03-22T20:18:58;30.23;;;15.67;;
